createdAt,value
2017-10-19T00:01:59.290Z,12.58
2017-10-19T00:04:27.015Z,12.58
2017-10-19T00:06:54.593Z,12.69
2017-10-19T00:09:22.553Z,12.72
2017-10-19T00:11:50.320Z,12.56
2017-10-19T00:14:17.928Z,12.50
2017-10-19T00:16:45.585Z,12.53
2017-10-19T00:19:15.863Z,12.60
2017-10-19T00:21:43.556Z,12.48
2017-10-19T00:24:11.296Z,12.47
2017-10-19T00:26:40.744Z,12.40
2017-10-19T00:29:09.660Z,12.39
2017-10-19T00:31:38.988Z,12.33
2017-10-19T00:34:08.786Z,12.34
2017-10-19T00:36:38.659Z,12.39
2017-10-19T00:39:08.155Z,12.32
2017-10-19T00:41:36.099Z,12.32
2017-10-19T00:44:06.084Z,12.26
2017-10-19T00:46:33.752Z,12.22
2017-10-19T00:49:01.779Z,12.07
2017-10-19T00:51:30.325Z,12.00
2017-10-19T00:53:58.056Z,12.06
2017-10-19T00:56:25.775Z,12.11
2017-10-19T00:58:53.500Z,12.02
2017-10-19T01:01:21.902Z,11.78
2017-10-19T01:03:50.314Z,11.79
2017-10-19T01:06:18.045Z,11.70
2017-10-19T01:08:46.673Z,11.57
2017-10-19T01:11:14.540Z,11.37
2017-10-19T01:13:42.700Z,11.54
2017-10-19T01:16:11.556Z,11.58
2017-10-19T01:18:39.645Z,11.30
2017-10-19T01:21:09.366Z,11.57
2017-10-19T01:23:37.900Z,11.42
2017-10-19T01:26:06.985Z,11.35
2017-10-19T01:28:34.765Z,10.96
2017-10-19T01:31:02.567Z,10.51
2017-10-19T01:33:30.289Z,11.11
2017-10-19T01:36:00.051Z,11.38
2017-10-19T01:38:28.061Z,11.50
2017-10-19T01:40:55.787Z,11.73
2017-10-19T01:43:23.511Z,11.77
2017-10-19T01:45:51.277Z,11.76
2017-10-19T01:48:19.049Z,11.64
2017-10-19T01:50:47.425Z,11.51
2017-10-19T01:53:15.157Z,11.39
2017-10-19T01:55:42.872Z,11.36
2017-10-19T01:58:11.463Z,11.38
2017-10-19T02:00:40.460Z,11.36
2017-10-19T02:03:08.085Z,11.33
2017-10-19T02:05:36.512Z,11.29
2017-10-19T02:08:04.136Z,11.40
2017-10-19T02:10:32.469Z,11.28
2017-10-19T02:13:00.150Z,11.29
2017-10-19T02:15:27.764Z,11.07
2017-10-19T02:17:55.280Z,10.94
2017-10-19T02:20:22.862Z,11.06
2017-10-19T02:22:50.475Z,11.10
2017-10-19T02:25:20.101Z,11.00
2017-10-19T02:27:47.791Z,11.07
2017-10-19T02:30:15.421Z,11.01
2017-10-19T02:32:43.030Z,11.02
2017-10-19T02:35:11.771Z,11.09
2017-10-19T02:37:40.329Z,10.94
2017-10-19T02:40:08.011Z,10.98
2017-10-19T02:42:35.739Z,10.80
2017-10-19T02:45:03.341Z,10.87
2017-10-19T02:47:31.780Z,10.98
2017-10-19T02:50:00.571Z,10.81
2017-10-19T02:52:28.323Z,10.80
2017-10-19T02:54:58.142Z,10.90
2017-10-19T02:57:25.930Z,10.93
2017-10-19T02:59:53.596Z,10.84
2017-10-19T03:02:21.456Z,10.66
2017-10-19T03:04:50.565Z,10.77
2017-10-19T03:07:19.171Z,10.71
2017-10-19T03:09:47.403Z,10.82
2017-10-19T03:12:18.618Z,10.76
2017-10-19T03:14:47.181Z,10.82
2017-10-19T03:17:15.847Z,10.84
2017-10-19T03:19:43.607Z,10.74
2017-10-19T03:22:11.209Z,10.66
2017-10-19T03:24:38.991Z,10.64
2017-10-19T03:27:06.642Z,10.72
2017-10-19T03:29:35.200Z,10.76
2017-10-19T03:32:04.848Z,10.71
2017-10-19T03:34:33.551Z,10.73
2017-10-19T03:37:02.471Z,10.72
2017-10-19T03:39:30.488Z,10.60
2017-10-19T03:41:58.049Z,10.66
2017-10-19T03:44:25.585Z,10.69
2017-10-19T03:46:53.320Z,10.58
2017-10-19T03:49:21.058Z,10.58
2017-10-19T03:51:49.592Z,10.63
2017-10-19T03:54:18.249Z,10.54
2017-10-19T03:56:46.410Z,10.50
2017-10-19T03:59:14.471Z,10.44
2017-10-19T04:01:42.173Z,10.51
2017-10-19T04:04:10.047Z,10.46
2017-10-19T04:06:38.262Z,10.33
2017-10-19T04:09:06.988Z,10.28
2017-10-19T04:11:34.599Z,10.14
2017-10-19T04:14:03.017Z,10.18
2017-10-19T04:16:31.154Z,10.19
2017-10-19T04:18:59.023Z,10.23
2017-10-19T04:21:27.590Z,10.20
2017-10-19T04:23:56.916Z,9.60
2017-10-19T04:26:24.592Z,9.84
2017-10-19T04:28:52.689Z,10.02
2017-10-19T04:31:21.588Z,10.08
2017-10-19T04:33:50.205Z,10.08
2017-10-19T04:36:19.191Z,10.07
2017-10-19T04:38:46.848Z,10.17
2017-10-19T04:41:14.395Z,10.12
2017-10-19T04:43:41.937Z,10.13
2017-10-19T04:46:10.173Z,10.03
2017-10-19T04:48:37.772Z,9.91
2017-10-19T04:51:05.311Z,9.97
2017-10-19T04:53:32.900Z,9.96
2017-10-19T04:56:00.502Z,10.15
2017-10-19T04:58:28.101Z,9.99
2017-10-19T05:00:56.286Z,10.02
2017-10-19T05:03:23.950Z,10.06
2017-10-19T05:05:52.550Z,10.13
2017-10-19T05:08:20.061Z,10.12
2017-10-19T05:10:49.400Z,10.21
2017-10-19T05:13:17.157Z,10.03
2017-10-19T05:15:45.550Z,9.91
2017-10-19T05:18:13.137Z,10.11
2017-10-19T05:20:40.719Z,9.89
2017-10-19T05:23:08.326Z,9.81
2017-10-19T05:25:35.930Z,9.77
2017-10-19T05:28:03.620Z,9.87
2017-10-19T05:30:31.321Z,9.88
2017-10-19T05:32:59.979Z,10.02
2017-10-19T05:35:27.639Z,10.09
2017-10-19T05:37:55.132Z,10.24
2017-10-19T05:40:22.632Z,10.38
2017-10-19T05:42:50.245Z,10.33
2017-10-19T05:45:17.949Z,10.26
2017-10-19T05:47:45.420Z,10.31
2017-10-19T05:50:12.916Z,10.31
2017-10-19T05:52:40.442Z,10.45
2017-10-19T05:55:08.029Z,10.50
2017-10-19T05:57:35.565Z,10.52
2017-10-19T06:00:03.506Z,10.51
2017-10-19T06:02:33.085Z,10.54
2017-10-19T06:05:00.778Z,10.46
2017-10-19T06:07:29.274Z,10.52
2017-10-19T06:09:56.894Z,10.55
2017-10-19T06:12:24.431Z,10.42
2017-10-19T06:14:52.010Z,10.54
2017-10-19T06:17:31.727Z,10.63
2017-10-19T06:19:59.257Z,10.78
2017-10-19T06:22:26.844Z,10.86
2017-10-19T06:24:54.357Z,11.07
2017-10-19T06:27:21.912Z,11.13
2017-10-19T06:29:49.429Z,11.21
2017-10-19T06:32:17.004Z,11.31
2017-10-19T06:34:44.546Z,11.33
2017-10-19T06:37:12.099Z,11.41
2017-10-19T06:39:39.774Z,11.40
2017-10-19T06:42:07.338Z,11.61
2017-10-19T06:44:34.899Z,12.77
2017-10-19T06:47:03.809Z,14.44
2017-10-19T06:49:31.368Z,16.25
2017-10-19T06:51:58.859Z,18.25
2017-10-19T06:54:26.401Z,18.49
2017-10-19T06:56:53.920Z,18.28
2017-10-19T06:59:21.435Z,17.82
2017-10-19T07:01:48.986Z,15.97
2017-10-19T07:04:16.509Z,14.83
2017-10-19T07:06:44.043Z,14.43
2017-10-19T07:09:11.580Z,14.33
2017-10-19T07:11:39.124Z,14.05
2017-10-19T07:14:06.733Z,13.73
2017-10-19T07:16:34.391Z,13.10
2017-10-19T07:19:01.953Z,13.28
2017-10-19T07:21:29.524Z,12.97
2017-10-19T07:23:57.148Z,13.06
2017-10-19T07:26:24.721Z,13.03
2017-10-19T07:28:52.341Z,12.83
2017-10-19T07:31:19.833Z,12.83
2017-10-19T07:33:47.474Z,13.59
2017-10-19T07:36:16.428Z,13.29
2017-10-19T07:38:44.511Z,13.34
2017-10-19T07:41:13.399Z,13.32
2017-10-19T07:43:41.339Z,13.26
2017-10-19T07:46:09.251Z,13.24
2017-10-19T07:48:36.969Z,13.43
2017-10-19T07:51:04.623Z,13.39
2017-10-19T07:53:33.126Z,13.37
2017-10-19T07:56:00.846Z,13.55
2017-10-19T08:01:03.876Z,13.61
2017-10-19T08:03:31.495Z,13.75
2017-10-19T08:05:59.227Z,13.84
2017-10-19T08:08:26.966Z,13.89
2017-10-19T08:11:03.251Z,13.75
2017-10-19T08:13:32.219Z,13.24
2017-10-19T08:16:02.055Z,13.36
2017-10-19T08:18:29.805Z,13.37
2017-10-19T08:20:58.558Z,13.17
2017-10-19T08:23:26.273Z,13.42
2017-10-19T08:25:55.130Z,13.68
2017-10-19T08:28:23.054Z,13.95
2017-10-19T08:30:51.857Z,13.91
2017-10-19T08:36:00.418Z,14.37
2017-10-19T08:38:28.777Z,14.63
2017-10-19T08:43:53.522Z,14.76
2017-10-19T08:59:53.100Z,14.99
2017-10-19T09:02:20.685Z,15.16
2017-10-19T09:04:49.226Z,14.99
2017-10-19T09:07:16.859Z,14.98
2017-10-19T09:09:44.540Z,14.99
2017-10-19T09:12:12.423Z,15.16
2017-10-19T09:14:41.837Z,15.41
2017-10-19T09:17:09.745Z,15.36
2017-10-19T09:19:37.389Z,15.43
2017-10-19T09:22:04.920Z,15.49
2017-10-19T09:24:32.560Z,15.50
2017-10-19T09:27:00.336Z,16.84
2017-10-19T09:29:28.152Z,18.60
2017-10-19T09:31:55.781Z,19.95
2017-10-19T09:34:23.305Z,20.22
2017-10-19T09:36:50.982Z,20.54
2017-10-19T09:39:18.560Z,20.17
2017-10-19T09:41:46.104Z,20.25
2017-10-19T09:44:15.155Z,20.36
2017-10-19T09:46:43.491Z,20.49
2017-10-19T09:49:11.001Z,20.13
2017-10-19T09:51:38.568Z,19.76
2017-10-19T09:54:06.143Z,19.09
2017-10-19T09:56:33.703Z,19.01
2017-10-19T09:59:01.277Z,18.47
2017-10-19T10:01:28.883Z,18.25
2017-10-19T10:03:56.452Z,18.50
2017-10-19T10:06:24.006Z,18.68
2017-10-19T10:08:51.610Z,18.79
2017-10-19T10:11:19.131Z,18.79
2017-10-19T10:13:46.760Z,18.91
2017-10-19T10:16:14.277Z,19.48
2017-10-19T10:18:41.855Z,19.73
2017-10-19T10:21:09.390Z,19.86
2017-10-19T10:23:36.909Z,20.15
2017-10-19T10:26:04.511Z,20.43
2017-10-19T10:28:32.064Z,21.02
2017-10-19T10:30:59.659Z,21.38
2017-10-19T10:33:27.212Z,21.83
2017-10-19T10:35:54.773Z,22.33
2017-10-19T10:38:22.350Z,21.96
2017-10-19T10:40:49.846Z,21.81
2017-10-19T10:43:17.567Z,22.00
2017-10-19T10:45:45.252Z,22.45
2017-10-19T10:48:12.855Z,22.68
2017-10-19T10:50:40.540Z,23.07
2017-10-19T10:53:08.415Z,23.17
2017-10-19T10:55:46.043Z,23.07
2017-10-19T10:58:13.587Z,22.96
2017-10-19T11:00:41.145Z,22.80
2017-10-19T11:03:08.817Z,22.63
2017-10-19T11:05:36.415Z,22.35
2017-10-19T11:08:03.942Z,22.24
2017-10-19T11:10:31.484Z,22.23
2017-10-19T11:12:59.099Z,22.04
2017-10-19T11:15:26.765Z,22.05
2017-10-19T11:17:54.318Z,22.53
2017-10-19T11:20:22.122Z,22.90
2017-10-19T11:22:50.158Z,22.80
2017-10-19T11:25:17.659Z,23.07
2017-10-19T11:27:46.532Z,24.37
2017-10-19T11:30:14.293Z,25.26
2017-10-19T11:32:42.109Z,26.23
2017-10-19T11:35:09.836Z,27.09
2017-10-19T11:37:37.423Z,28.05
2017-10-19T11:40:05.064Z,28.44
2017-10-19T11:42:32.676Z,28.50
2017-10-19T11:45:01.472Z,28.40
2017-10-19T11:47:29.794Z,28.38
2017-10-19T11:49:57.581Z,28.69
2017-10-19T11:52:25.878Z,28.87
2017-10-19T11:54:53.548Z,29.90
2017-10-19T11:57:21.323Z,30.75
2017-10-19T11:59:49.746Z,31.23
2017-10-19T12:02:22.655Z,31.50
2017-10-19T12:04:50.556Z,31.65
2017-10-19T12:07:18.312Z,31.09
2017-10-19T12:09:47.209Z,31.68
2017-10-19T12:12:15.017Z,31.61
2017-10-19T12:14:43.771Z,31.95
2017-10-19T12:17:11.489Z,31.79
2017-10-19T12:19:39.175Z,31.31
2017-10-19T12:22:07.257Z,31.65
2017-10-19T12:24:37.419Z,32.23
2017-10-19T12:27:05.484Z,32.52
2017-10-19T12:29:33.684Z,31.91
2017-10-19T12:32:01.275Z,32.18
2017-10-19T12:34:29.756Z,32.79
2017-10-19T12:37:06.474Z,32.39
2017-10-19T12:39:34.550Z,31.83
2017-10-19T12:42:02.389Z,31.81
2017-10-19T12:44:30.107Z,32.09
2017-10-19T12:46:57.828Z,31.51
2017-10-19T12:49:25.930Z,30.67
2017-10-19T12:51:53.827Z,30.23
2017-10-19T12:54:21.841Z,30.24
2017-10-19T12:56:49.642Z,29.71
2017-10-19T12:59:17.412Z,29.39
2017-10-19T13:04:19.081Z,28.98
2017-10-19T13:06:46.700Z,29.17
2017-10-19T13:09:14.380Z,29.52
2017-10-19T13:11:42.672Z,29.09
2017-10-19T13:14:10.419Z,28.92
2017-10-19T13:16:38.057Z,29.21
2017-10-19T13:19:05.815Z,29.29
2017-10-19T13:21:33.600Z,29.45
2017-10-19T13:24:01.962Z,29.77
2017-10-19T13:26:30.230Z,28.78
2017-10-19T13:28:59.105Z,29.37
2017-10-19T13:31:26.955Z,30.16
2017-10-19T13:33:54.654Z,29.59
2017-10-19T13:36:22.422Z,29.27
2017-10-19T13:38:50.735Z,29.58
2017-10-19T13:41:19.210Z,29.09
2017-10-19T13:43:47.247Z,29.03
2017-10-19T13:46:14.917Z,28.27
2017-10-19T13:48:45.175Z,28.40
2017-10-19T13:51:12.737Z,28.62
2017-10-19T13:53:41.015Z,27.76
2017-10-19T13:56:08.638Z,27.96
2017-10-19T13:58:36.281Z,27.45
2017-10-19T14:01:04.115Z,27.55
2017-10-19T14:03:32.323Z,27.45
2017-10-19T14:05:59.937Z,27.14
2017-10-19T14:08:27.538Z,26.98
2017-10-19T14:10:55.108Z,26.67
2017-10-19T14:13:23.395Z,26.37
2017-10-19T14:15:51.147Z,26.02
2017-10-19T14:18:18.808Z,25.38
2017-10-19T14:20:46.453Z,25.43
2017-10-19T14:23:14.081Z,25.25
2017-10-19T14:25:41.594Z,25.37
2017-10-19T14:28:10.371Z,25.46
2017-10-19T14:30:37.944Z,25.51
2017-10-19T14:33:06.102Z,25.56
2017-10-19T14:35:34.612Z,25.61
2017-10-19T14:38:02.240Z,25.15
2017-10-19T14:40:29.944Z,25.16
2017-10-19T14:42:57.676Z,25.13
2017-10-19T14:45:25.428Z,25.09
2017-10-19T14:47:53.773Z,25.25
2017-10-19T14:50:21.485Z,25.25
2017-10-19T14:52:49.150Z,24.86
2017-10-19T14:55:16.915Z,24.82
2017-10-19T14:57:44.521Z,24.92
2017-10-19T15:00:12.929Z,24.53
2017-10-19T15:02:40.588Z,24.45
2017-10-19T15:05:08.170Z,24.49
2017-10-19T15:07:35.786Z,24.44
2017-10-19T15:10:03.323Z,24.26
2017-10-19T15:12:30.853Z,24.37
2017-10-19T15:14:58.424Z,24.37
2017-10-19T15:17:26.066Z,24.44
2017-10-19T15:19:53.649Z,24.17
2017-10-19T15:22:21.253Z,24.19
2017-10-19T15:24:48.842Z,24.09
2017-10-19T15:27:16.400Z,23.98
2017-10-19T15:29:44.477Z,23.82
2017-10-19T15:32:12.019Z,23.77
2017-10-19T15:34:39.639Z,23.68
2017-10-19T15:37:07.313Z,23.61
2017-10-19T15:39:34.898Z,23.54
2017-10-19T15:42:02.463Z,23.39
2017-10-19T15:44:30.042Z,23.28
2017-10-19T15:46:57.640Z,23.18
2017-10-19T15:49:25.243Z,23.00
2017-10-19T15:51:52.844Z,22.91
2017-10-19T15:54:21.351Z,22.84
2017-10-19T15:56:48.968Z,22.76
2017-10-19T15:59:16.844Z,22.63
2017-10-19T16:01:44.510Z,22.46
2017-10-19T16:04:12.282Z,22.35
2017-10-19T16:06:39.777Z,22.21
2017-10-19T16:09:09.076Z,22.23
2017-10-19T16:11:37.599Z,22.15
2017-10-19T16:14:05.313Z,22.04
2017-10-19T16:16:32.979Z,22.01
2017-10-19T16:19:01.463Z,21.95
2017-10-19T16:21:29.146Z,21.88
2017-10-19T16:23:57.853Z,21.70
2017-10-19T16:26:25.403Z,21.67
2017-10-19T16:28:56.092Z,21.51
2017-10-19T16:31:23.732Z,21.44
2017-10-19T16:33:51.267Z,21.23
2017-10-19T16:36:18.804Z,21.13
2017-10-19T16:38:46.526Z,20.98
2017-10-19T16:41:14.145Z,20.81
2017-10-19T16:43:41.955Z,20.76
2017-10-19T16:46:09.532Z,20.64
2017-10-19T16:48:38.084Z,20.55
2017-10-19T16:51:06.765Z,20.51
2017-10-19T16:53:34.605Z,20.40
2017-10-19T16:56:02.237Z,20.40
2017-10-19T16:58:29.900Z,20.34
2017-10-19T17:00:57.523Z,19.90
2017-10-19T17:03:28.061Z,19.38
2017-10-19T17:05:55.686Z,19.45
2017-10-19T17:08:23.377Z,19.24
2017-10-19T17:10:51.194Z,19.30
2017-10-19T17:13:20.179Z,19.30
2017-10-19T17:15:48.020Z,19.23
2017-10-19T17:18:16.898Z,19.17
2017-10-19T17:20:44.755Z,19.12
2017-10-19T17:23:14.653Z,19.08
2017-10-19T17:25:42.528Z,19.06
2017-10-19T17:28:11.990Z,18.95
2017-10-19T17:30:39.962Z,18.93
2017-10-19T17:33:08.082Z,18.96
2017-10-19T17:35:36.405Z,18.94
2017-10-19T17:38:04.084Z,18.81
2017-10-19T17:40:32.991Z,18.78
2017-10-19T17:43:02.718Z,18.72
2017-10-19T17:45:33.016Z,18.74
2017-10-19T17:48:01.686Z,18.72
2017-10-19T17:50:31.393Z,18.59
2017-10-19T17:52:59.679Z,18.51
2017-10-19T17:55:27.521Z,18.35
2017-10-19T17:57:56.365Z,18.24
2017-10-19T18:00:24.252Z,17.73
2017-10-19T18:02:53.124Z,17.64
2017-10-19T18:05:20.908Z,17.70
2017-10-19T18:07:50.745Z,17.53
2017-10-19T18:10:20.121Z,17.64
2017-10-19T18:12:49.966Z,17.73
2017-10-19T18:15:18.818Z,17.49
2017-10-19T18:17:47.025Z,17.53
2017-10-19T18:20:14.922Z,17.59
2017-10-19T18:22:42.783Z,17.57
2017-10-19T18:25:11.546Z,17.60
2017-10-19T18:27:40.511Z,17.45
2017-10-19T18:30:08.855Z,17.31
2017-10-19T18:32:36.534Z,17.39
2017-10-19T18:35:04.455Z,17.25
2017-10-19T18:37:32.221Z,17.12
2017-10-19T18:40:00.537Z,17.05
2017-10-19T18:42:28.628Z,17.08
2017-10-19T18:44:56.583Z,16.92
2017-10-19T18:49:58.358Z,16.83
2017-10-19T18:52:26.396Z,16.83
2017-10-19T18:54:54.329Z,16.74
2017-10-19T18:57:22.298Z,16.69
2017-10-19T18:59:50.255Z,16.55
2017-10-19T19:02:18.168Z,16.29
2017-10-19T19:04:46.117Z,16.27
2017-10-19T19:07:14.115Z,16.35
2017-10-19T19:09:42.106Z,16.28
2017-10-19T19:12:13.246Z,16.41
2017-10-19T19:14:41.235Z,16.39
2017-10-19T19:17:10.205Z,16.40
2017-10-19T19:19:38.082Z,16.35
2017-10-19T19:22:07.591Z,16.52
2017-10-19T19:24:35.764Z,16.55
2017-10-19T19:27:04.558Z,16.50
2017-10-19T19:29:32.509Z,16.22
2017-10-19T19:32:01.573Z,16.33
2017-10-19T19:34:29.481Z,16.32
2017-10-19T19:36:57.470Z,16.17
2017-10-19T19:39:25.601Z,16.15
2017-10-19T19:41:54.431Z,16.27
2017-10-19T19:44:23.413Z,16.37
2017-10-19T19:46:51.469Z,16.13
2017-10-19T19:49:21.044Z,16.20
2017-10-19T19:51:49.598Z,16.21
2017-10-19T19:54:19.619Z,16.33
2017-10-19T19:56:47.908Z,16.30
2017-10-19T19:59:15.957Z,16.14
2017-10-19T20:01:44.079Z,16.18
2017-10-19T20:07:15.059Z,16.14
2017-10-19T20:09:43.522Z,16.20
2017-10-19T20:12:12.004Z,16.13
2017-10-19T20:14:40.097Z,16.13
2017-10-19T20:17:09.114Z,16.07
2017-10-19T20:19:38.619Z,15.94
2017-10-19T20:22:06.968Z,15.90
2017-10-19T20:24:36.067Z,15.65
2017-10-19T20:27:05.868Z,15.67
2017-10-19T20:29:33.839Z,15.83
2017-10-19T20:32:04.095Z,15.85
2017-10-19T20:34:33.424Z,15.73
2017-10-19T20:37:02.985Z,15.53
2017-10-19T20:39:31.733Z,15.26
2017-10-19T20:42:03.612Z,15.21
2017-10-19T20:44:32.960Z,15.23
2017-10-19T20:47:01.659Z,15.45
2017-10-19T20:49:30.457Z,15.42
2017-10-19T20:52:00.859Z,15.24
2017-10-19T20:54:28.492Z,14.97
2017-10-19T20:56:58.730Z,15.03
2017-10-19T20:59:27.706Z,15.02
2017-10-19T21:01:55.617Z,14.87
2017-10-19T21:04:23.507Z,14.29
2017-10-19T21:06:51.165Z,14.74
2017-10-19T21:09:19.701Z,14.89
2017-10-19T21:11:48.296Z,14.92
2017-10-19T21:14:17.009Z,15.08
2017-10-19T21:16:44.605Z,14.98
2017-10-19T21:19:13.405Z,15.07
2017-10-19T21:21:41.143Z,14.96
2017-10-19T21:24:09.804Z,14.85
2017-10-19T21:26:37.358Z,14.76
2017-10-19T21:29:05.755Z,14.79
2017-10-19T21:31:34.934Z,14.99
2017-10-19T21:34:03.439Z,15.09
2017-10-19T21:36:32.701Z,14.92
2017-10-19T21:39:02.098Z,14.78
2017-10-19T21:41:31.537Z,14.55
2017-10-19T21:43:59.879Z,14.61
2017-10-19T21:46:28.952Z,14.56
2017-10-19T21:48:56.886Z,14.50
2017-10-19T21:51:24.553Z,14.66
2017-10-19T21:53:52.204Z,14.60
2017-10-19T21:56:20.692Z,14.46
2017-10-19T21:58:48.440Z,14.45
2017-10-19T22:01:17.034Z,14.47
2017-10-19T22:03:45.714Z,14.51
2017-10-19T22:06:14.377Z,14.51
2017-10-19T22:08:42.331Z,14.55
2017-10-19T22:11:10.068Z,14.52
2017-10-19T22:13:37.733Z,14.55
2017-10-19T22:16:05.994Z,14.51
2017-10-19T22:18:33.699Z,14.47
2017-10-19T22:21:01.559Z,14.44
2017-10-19T22:23:29.388Z,14.37
2017-10-19T22:25:57.949Z,14.15
2017-10-19T22:28:28.230Z,14.23
2017-10-19T22:30:56.053Z,14.20
2017-10-19T22:33:23.982Z,14.07
2017-10-19T22:35:52.078Z,13.85
2017-10-19T22:38:19.652Z,14.11
2017-10-19T22:40:50.271Z,14.14
2017-10-19T22:43:17.925Z,14.17
2017-10-19T22:45:46.966Z,14.14
2017-10-19T22:48:14.538Z,14.23
2017-10-19T22:50:42.919Z,14.18
2017-10-19T22:53:11.319Z,13.91
2017-10-19T22:55:39.212Z,13.82
2017-10-19T22:58:06.725Z,13.82
2017-10-19T23:00:34.430Z,13.79
2017-10-19T23:03:01.947Z,13.73
2017-10-19T23:05:30.398Z,13.66
2017-10-19T23:07:58.881Z,13.81
2017-10-19T23:12:59.784Z,13.98
2017-10-19T23:15:27.463Z,13.98
2017-10-19T23:17:55.205Z,13.90
2017-10-19T23:20:22.892Z,13.97
2017-10-19T23:22:51.107Z,13.91
2017-10-19T23:25:18.799Z,14.03
2017-10-19T23:27:46.328Z,13.95
2017-10-19T23:30:15.574Z,13.98
2017-10-19T23:32:46.159Z,13.96
2017-10-19T23:35:13.867Z,13.92
2017-10-19T23:37:43.533Z,13.91
2017-10-19T23:40:12.275Z,13.81
2017-10-19T23:42:40.107Z,13.65
2017-10-19T23:45:07.802Z,13.53
2017-10-19T23:47:36.353Z,13.45
2017-10-19T23:50:03.952Z,13.49
2017-10-19T23:52:32.433Z,13.70
2017-10-19T23:55:00.111Z,13.79
2017-10-19T23:57:27.803Z,13.87
2017-10-19T23:59:55.442Z,13.89
